createdAt,value
2023-05-06T00:04:26.991Z,100.00
2023-05-06T00:14:31.208Z,100.00
2023-05-06T00:24:33.683Z,100.00
2023-05-06T00:34:41.618Z,100.00
2023-05-06T00:44:44.425Z,100.00
2023-05-06T00:54:46.346Z,100.00
2023-05-06T01:04:48.133Z,100.00
2023-05-06T01:15:33.622Z,100.00
2023-05-06T01:25:35.483Z,100.00
2023-05-06T01:36:15.287Z,100.00
2023-05-06T01:46:24.802Z,100.00
2023-05-06T01:56:27.177Z,100.00
2023-05-06T02:06:30.863Z,100.00
2023-05-06T02:16:32.692Z,100.00
2023-05-06T02:26:35.891Z,100.00
2023-05-06T02:36:39.627Z,100.00
2023-05-06T02:46:42.339Z,100.00
2023-05-06T02:56:50.256Z,100.00
2023-05-06T03:06:54.377Z,100.00
2023-05-06T03:16:59.295Z,100.00
2023-05-06T03:27:02.502Z,100.00
2023-05-06T03:37:04.354Z,100.00
2023-05-06T03:47:06.012Z,100.00
2023-05-06T03:57:07.646Z,100.00
2023-05-06T04:07:21.346Z,100.00
2023-05-06T04:17:23.133Z,100.00
2023-05-06T04:27:29.903Z,100.00
2023-05-06T04:37:32.012Z,100.00
2023-05-06T04:47:34.563Z,100.00
2023-05-06T04:57:36.414Z,100.00
2023-05-06T05:07:39.515Z,100.00
2023-05-06T05:17:41.877Z,100.00
2023-05-06T05:27:47.193Z,100.00
2023-05-06T05:37:50.301Z,100.00
2023-05-06T05:47:54.100Z,100.00
2023-05-06T05:57:59.103Z,100.00
2023-05-06T06:08:03.503Z,100.00
2023-05-06T06:18:17.544Z,100.00
2023-05-06T06:28:19.919Z,94.88
2023-05-06T06:38:23.211Z,91.66
2023-05-06T06:48:25.059Z,91.78
2023-05-06T06:58:30.632Z,88.99
2023-05-06T07:08:32.328Z,86.67
2023-05-06T07:18:36.413Z,78.72
2023-05-06T07:28:38.039Z,71.34
2023-05-06T07:38:41.568Z,71.40
2023-05-06T07:48:46.187Z,68.01
2023-05-06T07:58:49.510Z,71.48
2023-05-06T08:08:51.590Z,65.44
2023-05-06T08:18:53.489Z,59.58
2023-05-06T08:28:58.697Z,55.75
2023-05-06T08:39:01.446Z,53.65
2023-05-06T08:49:04.497Z,52.98
2023-05-06T08:59:10.472Z,52.07
2023-05-06T09:09:13.143Z,47.81
2023-05-06T09:19:23.747Z,46.93
2023-05-06T09:29:29.323Z,44.59
2023-05-06T09:39:31.229Z,39.74
2023-05-06T09:49:34.072Z,39.09
2023-05-06T09:59:44.372Z,36.17
2023-05-06T10:09:48.300Z,37.96
2023-05-06T10:19:52.617Z,35.46
2023-05-06T10:29:59.181Z,31.41
2023-05-06T10:40:07.308Z,28.61
2023-05-06T10:50:24.879Z,25.04
2023-05-06T11:00:36.860Z,33.82
2023-05-06T11:10:40.275Z,23.68
2023-05-06T11:20:42.094Z,31.74
2023-05-06T11:30:53.981Z,31.59
2023-05-06T11:40:57.976Z,30.85
2023-05-06T11:50:59.972Z,36.48
2023-05-06T12:01:03.400Z,37.48
2023-05-06T12:11:08.197Z,38.11
2023-05-06T12:21:10.164Z,38.59
2023-05-06T12:31:22.537Z,38.52
2023-05-06T12:41:35.136Z,39.73
2023-05-06T12:51:37.787Z,38.07
2023-05-06T13:01:41.056Z,40.42
2023-05-06T13:11:42.920Z,43.11
2023-05-06T13:21:46.468Z,43.40
2023-05-06T13:31:49.259Z,43.78
2023-05-06T13:41:51.789Z,43.46
2023-05-06T13:51:54.511Z,50.36
2023-05-06T14:01:56.591Z,51.94
2023-05-06T14:11:58.726Z,54.53
2023-05-06T14:22:00.559Z,59.87
2023-05-06T14:32:02.513Z,72.32
2023-05-06T14:42:04.393Z,86.24
2023-05-06T14:52:08.059Z,100.00
2023-05-06T15:02:10.564Z,100.00
2023-05-06T15:12:12.898Z,100.00
2023-05-06T15:22:16.921Z,100.00
2023-05-06T15:32:18.672Z,100.00
2023-05-06T15:42:25.821Z,100.00
2023-05-06T15:52:27.445Z,100.00
2023-05-06T16:02:32.928Z,85.65
2023-05-06T16:12:40.254Z,42.30
2023-05-06T16:22:41.989Z,52.95
2023-05-06T16:32:45.276Z,45.95
2023-05-06T16:42:49.478Z,70.95
2023-05-06T16:52:54.435Z,90.10
2023-05-06T17:03:03.939Z,98.88
2023-05-06T17:13:06.094Z,100.00
2023-05-06T17:23:07.785Z,100.00
2023-05-06T17:33:10.091Z,100.00
2023-05-06T17:43:12.227Z,100.00
2023-05-06T17:53:14.109Z,100.00
2023-05-06T18:03:15.810Z,100.00
2023-05-06T18:13:18.900Z,100.00
2023-05-06T18:23:23.097Z,100.00
2023-05-06T18:33:27.357Z,100.00
2023-05-06T18:43:33.326Z,100.00
2023-05-06T18:53:35.524Z,100.00
2023-05-06T19:03:41.588Z,100.00
2023-05-06T19:13:45.069Z,100.00
2023-05-06T19:23:47.218Z,100.00
2023-05-06T19:33:48.827Z,100.00
2023-05-06T19:43:51.388Z,100.00
2023-05-06T19:53:53.382Z,100.00
2023-05-06T20:03:57.166Z,100.00
2023-05-06T20:13:58.954Z,100.00
2023-05-06T20:24:00.855Z,100.00
2023-05-06T20:34:04.768Z,100.00
2023-05-06T20:44:07.696Z,100.00
2023-05-06T20:54:21.740Z,100.00
2023-05-06T21:04:26.589Z,100.00
2023-05-06T21:14:42.748Z,100.00
2023-05-06T21:24:44.470Z,100.00
2023-05-06T21:34:46.690Z,100.00
2023-05-06T21:44:55.759Z,100.00
2023-05-06T21:54:58.236Z,100.00
2023-05-06T22:05:01.940Z,100.00
2023-05-06T22:15:10.517Z,100.00
2023-05-06T22:25:14.354Z,100.00
2023-05-06T22:35:28.228Z,100.00
2023-05-06T22:45:29.901Z,100.00
2023-05-06T22:55:31.948Z,100.00
2023-05-06T23:05:34.767Z,100.00
2023-05-06T23:15:36.834Z,100.00
2023-05-06T23:25:38.595Z,100.00
2023-05-06T23:35:41.331Z,100.00
2023-05-06T23:45:43.204Z,100.00
2023-05-06T23:55:46.217Z,100.00
